sensor_id;sensor_type;location;lat;lon;timestamp;temperature;humidity
54202;DHT22;40108;53.152;5.844;2023-02-01T00:00:49;6.10;86.20
54202;DHT22;40108;53.152;5.844;2023-02-01T00:03:15;6.10;86.20
54202;DHT22;40108;53.152;5.844;2023-02-01T00:05:44;6.10;86.10
54202;DHT22;40108;53.152;5.844;2023-02-01T00:08:12;6.00;86.20
54202;DHT22;40108;53.152;5.844;2023-02-01T00:10:38;6.10;86.10
54202;DHT22;40108;53.152;5.844;2023-02-01T00:13:04;6.10;86.20
54202;DHT22;40108;53.152;5.844;2023-02-01T00:15:29;6.10;86.20
54202;DHT22;40108;53.152;5.844;2023-02-01T00:18:03;6.10;86.30
54202;DHT22;40108;53.152;5.844;2023-02-01T00:20:29;6.10;86.30
54202;DHT22;40108;53.152;5.844;2023-02-01T00:22:54;6.10;86.30
54202;DHT22;40108;53.152;5.844;2023-02-01T00:25:21;6.10;86.30
54202;DHT22;40108;53.152;5.844;2023-02-01T00:27:50;6.10;86.30
54202;DHT22;40108;53.152;5.844;2023-02-01T00:30:17;6.10;86.30
54202;DHT22;40108;53.152;5.844;2023-02-01T00:32:43;6.10;86.30
54202;DHT22;40108;53.152;5.844;2023-02-01T00:35:09;6.10;86.30
54202;DHT22;40108;53.152;5.844;2023-02-01T00:37:34;6.10;86.30
54202;DHT22;40108;53.152;5.844;2023-02-01T00:40:00;6.10;86.40
54202;DHT22;40108;53.152;5.844;2023-02-01T00:42:26;6.20;86.40
54202;DHT22;40108;53.152;5.844;2023-02-01T00:44:52;6.20;86.40
54202;DHT22;40108;53.152;5.844;2023-02-01T00:47:18;6.20;86.50
54202;DHT22;40108;53.152;5.844;2023-02-01T00:49:45;6.20;86.50
54202;DHT22;40108;53.152;5.844;2023-02-01T00:52:11;6.20;86.50
54202;DHT22;40108;53.152;5.844;2023-02-01T00:54:36;6.20;86.50
54202;DHT22;40108;53.152;5.844;2023-02-01T00:57:03;6.20;86.50
54202;DHT22;40108;53.152;5.844;2023-02-01T00:59:28;6.20;86.40
54202;DHT22;40108;53.152;5.844;2023-02-01T01:01:54;6.20;86.50
54202;DHT22;40108;53.152;5.844;2023-02-01T01:04:20;6.20;86.40
54202;DHT22;40108;53.152;5.844;2023-02-01T01:06:46;6.20;86.30
54202;DHT22;40108;53.152;5.844;2023-02-01T01:09:12;6.30;86.20
54202;DHT22;40108;53.152;5.844;2023-02-01T01:11:38;6.30;86.20
54202;DHT22;40108;53.152;5.844;2023-02-01T01:14:05;6.30;86.20
54202;DHT22;40108;53.152;5.844;2023-02-01T01:16:33;6.30;86.20
54202;DHT22;40108;53.152;5.844;2023-02-01T01:19:00;6.30;86.10
54202;DHT22;40108;53.152;5.844;2023-02-01T01:21:26;6.30;86.10
54202;DHT22;40108;53.152;5.844;2023-02-01T01:23:53;6.30;86.10
54202;DHT22;40108;53.152;5.844;2023-02-01T01:26:28;6.40;86.20
54202;DHT22;40108;53.152;5.844;2023-02-01T01:28:56;6.30;86.40
54202;DHT22;40108;53.152;5.844;2023-02-01T01:31:22;6.30;86.70
54202;DHT22;40108;53.152;5.844;2023-02-01T01:33:54;6.30;87.10
54202;DHT22;40108;53.152;5.844;2023-02-01T01:36:20;6.20;87.50
54202;DHT22;40108;53.152;5.844;2023-02-01T01:38:47;6.20;87.80
54202;DHT22;40108;53.152;5.844;2023-02-01T01:41:16;6.20;88.00
54202;DHT22;40108;53.152;5.844;2023-02-01T01:43:54;6.20;88.20
54202;DHT22;40108;53.152;5.844;2023-02-01T01:46:24;6.20;88.30
54202;DHT22;40108;53.152;5.844;2023-02-01T01:49:13;6.20;88.50
54202;DHT22;40108;53.152;5.844;2023-02-01T01:51:44;6.20;88.50
54202;DHT22;40108;53.152;5.844;2023-02-01T01:54:40;6.20;88.60
54202;DHT22;40108;53.152;5.844;2023-02-01T01:57:18;6.10;88.80
54202;DHT22;40108;53.152;5.844;2023-02-01T01:59:48;6.20;88.90
54202;DHT22;40108;53.152;5.844;2023-02-01T02:02:16;6.10;88.90
54202;DHT22;40108;53.152;5.844;2023-02-01T02:04:42;6.20;88.90
54202;DHT22;40108;53.152;5.844;2023-02-01T02:07:16;6.20;89.00
54202;DHT22;40108;53.152;5.844;2023-02-01T02:09:42;6.20;89.00
54202;DHT22;40108;53.152;5.844;2023-02-01T02:12:09;6.20;89.10
54202;DHT22;40108;53.152;5.844;2023-02-01T02:14:36;6.10;89.00
54202;DHT22;40108;53.152;5.844;2023-02-01T02:27:31;6.10;88.80
54202;DHT22;40108;53.152;5.844;2023-02-01T02:32:48;6.20;88.60
54202;DHT22;40108;53.152;5.844;2023-02-01T02:35:51;6.20;88.50
54202;DHT22;40108;53.152;5.844;2023-02-01T02:47:27;6.20;87.70
54202;DHT22;40108;53.152;5.844;2023-02-01T02:50:24;6.20;87.60
54202;DHT22;40108;53.152;5.844;2023-02-01T02:53:18;6.20;87.60
54202;DHT22;40108;53.152;5.844;2023-02-01T02:56:05;6.20;87.70
54202;DHT22;40108;53.152;5.844;2023-02-01T02:58:51;6.20;87.60
54202;DHT22;40108;53.152;5.844;2023-02-01T03:01:37;6.20;87.70
54202;DHT22;40108;53.152;5.844;2023-02-01T03:04:22;6.20;87.60
54202;DHT22;40108;53.152;5.844;2023-02-01T03:06:49;6.20;87.60
54202;DHT22;40108;53.152;5.844;2023-02-01T03:09:29;6.20;87.70
54202;DHT22;40108;53.152;5.844;2023-02-01T03:12:00;6.20;87.70
54202;DHT22;40108;53.152;5.844;2023-02-01T03:14:48;6.20;87.70
54202;DHT22;40108;53.152;5.844;2023-02-01T03:17:20;6.20;87.70
54202;DHT22;40108;53.152;5.844;2023-02-01T03:19:48;6.20;87.60
54202;DHT22;40108;53.152;5.844;2023-02-01T03:22:22;6.20;87.60
54202;DHT22;40108;53.152;5.844;2023-02-01T03:25:01;6.20;87.70
54202;DHT22;40108;53.152;5.844;2023-02-01T03:27:44;6.20;87.70
54202;DHT22;40108;53.152;5.844;2023-02-01T03:30:22;6.20;87.60
54202;DHT22;40108;53.152;5.844;2023-02-01T03:32:51;6.20;87.60
54202;DHT22;40108;53.152;5.844;2023-02-01T03:35:52;6.30;87.60
54202;DHT22;40108;53.152;5.844;2023-02-01T03:38:21;6.30;87.60
54202;DHT22;40108;53.152;5.844;2023-02-01T03:41:02;6.30;87.40
54202;DHT22;40108;53.152;5.844;2023-02-01T03:44:01;6.30;87.30
54202;DHT22;40108;53.152;5.844;2023-02-01T03:46:32;6.40;87.40
54202;DHT22;40108;53.152;5.844;2023-02-01T03:49:02;6.40;87.40
54202;DHT22;40108;53.152;5.844;2023-02-01T03:51:29;6.40;87.50
54202;DHT22;40108;53.152;5.844;2023-02-01T03:53:57;6.40;87.60
54202;DHT22;40108;53.152;5.844;2023-02-01T03:56:25;6.40;87.70
54202;DHT22;40108;53.152;5.844;2023-02-01T03:58:53;6.30;87.70
54202;DHT22;40108;53.152;5.844;2023-02-01T04:01:29;6.40;87.80
54202;DHT22;40108;53.152;5.844;2023-02-01T04:03:57;6.40;88.00
54202;DHT22;40108;53.152;5.844;2023-02-01T04:06:23;6.30;88.00
54202;DHT22;40108;53.152;5.844;2023-02-01T04:08:51;6.30;88.00
54202;DHT22;40108;53.152;5.844;2023-02-01T04:11:17;6.30;87.90
54202;DHT22;40108;53.152;5.844;2023-02-01T04:13:44;6.30;87.80
54202;DHT22;40108;53.152;5.844;2023-02-01T04:16:10;6.30;87.90
54202;DHT22;40108;53.152;5.844;2023-02-01T04:18:35;6.30;87.80
54202;DHT22;40108;53.152;5.844;2023-02-01T04:21:02;6.30;87.90
54202;DHT22;40108;53.152;5.844;2023-02-01T04:23:28;6.30;87.90
54202;DHT22;40108;53.152;5.844;2023-02-01T04:26:02;6.30;87.90
54202;DHT22;40108;53.152;5.844;2023-02-01T04:28:28;6.20;87.90
54202;DHT22;40108;53.152;5.844;2023-02-01T04:30:54;6.20;87.90
54202;DHT22;40108;53.152;5.844;2023-02-01T04:33:20;6.20;88.00
54202;DHT22;40108;53.152;5.844;2023-02-01T04:35:45;6.20;88.00
54202;DHT22;40108;53.152;5.844;2023-02-01T04:38:11;6.10;88.10
54202;DHT22;40108;53.152;5.844;2023-02-01T04:40:39;6.00;88.20
54202;DHT22;40108;53.152;5.844;2023-02-01T04:43:05;6.00;88.20
54202;DHT22;40108;53.152;5.844;2023-02-01T04:45:31;6.00;88.30
54202;DHT22;40108;53.152;5.844;2023-02-01T04:47:57;5.90;88.50
54202;DHT22;40108;53.152;5.844;2023-02-01T04:50:25;6.00;88.60
54202;DHT22;40108;53.152;5.844;2023-02-01T04:52:50;6.00;88.70
54202;DHT22;40108;53.152;5.844;2023-02-01T04:55:16;6.00;88.70
54202;DHT22;40108;53.152;5.844;2023-02-01T04:57:42;6.10;88.60
54202;DHT22;40108;53.152;5.844;2023-02-01T05:00:09;6.10;88.60
54202;DHT22;40108;53.152;5.844;2023-02-01T05:02:35;6.20;88.60
54202;DHT22;40108;53.152;5.844;2023-02-01T05:05:01;6.20;88.50
54202;DHT22;40108;53.152;5.844;2023-02-01T05:07:27;6.20;88.40
54202;DHT22;40108;53.152;5.844;2023-02-01T05:09:52;6.20;88.40
54202;DHT22;40108;53.152;5.844;2023-02-01T05:12:21;6.20;88.30
54202;DHT22;40108;53.152;5.844;2023-02-01T05:15:05;6.30;88.20
54202;DHT22;40108;53.152;5.844;2023-02-01T05:17:31;6.20;88.10
54202;DHT22;40108;53.152;5.844;2023-02-01T05:19:57;6.30;88.10
54202;DHT22;40108;53.152;5.844;2023-02-01T05:22:22;6.30;88.10
54202;DHT22;40108;53.152;5.844;2023-02-01T05:24:48;6.30;88.10
54202;DHT22;40108;53.152;5.844;2023-02-01T05:27:14;6.30;88.10
54202;DHT22;40108;53.152;5.844;2023-02-01T05:29:39;6.20;88.10
54202;DHT22;40108;53.152;5.844;2023-02-01T05:32:05;6.30;88.20
54202;DHT22;40108;53.152;5.844;2023-02-01T05:34:31;6.30;88.30
54202;DHT22;40108;53.152;5.844;2023-02-01T05:36:57;6.30;88.40
54202;DHT22;40108;53.152;5.844;2023-02-01T05:39:22;6.20;88.30
54202;DHT22;40108;53.152;5.844;2023-02-01T05:41:48;6.30;88.40
54202;DHT22;40108;53.152;5.844;2023-02-01T05:44:14;6.20;88.30
54202;DHT22;40108;53.152;5.844;2023-02-01T05:46:42;6.20;88.30
54202;DHT22;40108;53.152;5.844;2023-02-01T05:49:10;6.20;88.10
54202;DHT22;40108;53.152;5.844;2023-02-01T05:51:36;6.20;88.10
54202;DHT22;40108;53.152;5.844;2023-02-01T05:54:03;6.20;88.10
54202;DHT22;40108;53.152;5.844;2023-02-01T05:56:29;6.20;88.20
54202;DHT22;40108;53.152;5.844;2023-02-01T05:58:57;6.20;88.20
54202;DHT22;40108;53.152;5.844;2023-02-01T06:01:23;6.10;88.30
54202;DHT22;40108;53.152;5.844;2023-02-01T06:03:49;6.10;88.50
54202;DHT22;40108;53.152;5.844;2023-02-01T06:06:15;6.10;88.60
54202;DHT22;40108;53.152;5.844;2023-02-01T06:08:40;6.10;88.70
54202;DHT22;40108;53.152;5.844;2023-02-01T06:11:11;6.00;88.80
54202;DHT22;40108;53.152;5.844;2023-02-01T06:13:39;6.00;88.90
54202;DHT22;40108;53.152;5.844;2023-02-01T06:16:12;5.90;88.90
54202;DHT22;40108;53.152;5.844;2023-02-01T06:18:41;6.00;89.00
54202;DHT22;40108;53.152;5.844;2023-02-01T06:21:06;6.00;89.20
54202;DHT22;40108;53.152;5.844;2023-02-01T06:23:33;6.10;89.20
54202;DHT22;40108;53.152;5.844;2023-02-01T06:26:01;6.10;89.10
54202;DHT22;40108;53.152;5.844;2023-02-01T06:28:46;6.10;89.10
54202;DHT22;40108;53.152;5.844;2023-02-01T06:38:22;6.20;89.20
54202;DHT22;40108;53.152;5.844;2023-02-01T06:40:53;6.20;89.20
54202;DHT22;40108;53.152;5.844;2023-02-01T06:46:42;6.20;89.10
54202;DHT22;40108;53.152;5.844;2023-02-01T06:49:08;6.10;89.00
54202;DHT22;40108;53.152;5.844;2023-02-01T06:51:36;6.20;89.10
54202;DHT22;40108;53.152;5.844;2023-02-01T06:54:42;6.20;89.10
54202;DHT22;40108;53.152;5.844;2023-02-01T07:00:38;6.10;89.30
54202;DHT22;40108;53.152;5.844;2023-02-01T07:06:44;6.00;89.80
54202;DHT22;40108;53.152;5.844;2023-02-01T07:09:10;6.00;89.80
54202;DHT22;40108;53.152;5.844;2023-02-01T07:11:37;6.00;89.90
54202;DHT22;40108;53.152;5.844;2023-02-01T07:14:06;6.00;90.00
54202;DHT22;40108;53.152;5.844;2023-02-01T07:16:43;5.90;90.00
54202;DHT22;40108;53.152;5.844;2023-02-01T07:19:11;5.90;90.10
54202;DHT22;40108;53.152;5.844;2023-02-01T07:21:36;5.90;90.20
54202;DHT22;40108;53.152;5.844;2023-02-01T07:27:51;5.90;90.20
54202;DHT22;40108;53.152;5.844;2023-02-01T07:33:58;5.90;90.20
54202;DHT22;40108;53.152;5.844;2023-02-01T07:36:24;5.90;90.20
54202;DHT22;40108;53.152;5.844;2023-02-01T07:38:52;5.90;90.10
54202;DHT22;40108;53.152;5.844;2023-02-01T07:41:18;5.90;90.00
54202;DHT22;40108;53.152;5.844;2023-02-01T07:43:44;5.90;90.00
54202;DHT22;40108;53.152;5.844;2023-02-01T07:46:11;5.90;90.00
54202;DHT22;40108;53.152;5.844;2023-02-01T07:48:37;6.00;90.10
54202;DHT22;40108;53.152;5.844;2023-02-01T07:51:10;5.90;90.20
54202;DHT22;40108;53.152;5.844;2023-02-01T07:53:36;6.00;90.30
54202;DHT22;40108;53.152;5.844;2023-02-01T07:56:03;6.00;90.40
54202;DHT22;40108;53.152;5.844;2023-02-01T07:58:30;6.00;90.50
54202;DHT22;40108;53.152;5.844;2023-02-01T08:01:03;6.00;90.60
54202;DHT22;40108;53.152;5.844;2023-02-01T08:03:57;6.00;90.60
54202;DHT22;40108;53.152;5.844;2023-02-01T08:06:26;6.00;90.60
54202;DHT22;40108;53.152;5.844;2023-02-01T08:08:53;6.00;90.70
54202;DHT22;40108;53.152;5.844;2023-02-01T08:11:19;6.00;90.70
54202;DHT22;40108;53.152;5.844;2023-02-01T08:13:46;6.10;90.80
54202;DHT22;40108;53.152;5.844;2023-02-01T08:16:14;6.10;90.60
54202;DHT22;40108;53.152;5.844;2023-02-01T08:18:40;6.10;90.50
54202;DHT22;40108;53.152;5.844;2023-02-01T08:21:14;6.10;90.50
54202;DHT22;40108;53.152;5.844;2023-02-01T08:23:42;6.20;90.40
54202;DHT22;40108;53.152;5.844;2023-02-01T08:26:13;6.20;90.40
54202;DHT22;40108;53.152;5.844;2023-02-01T08:28:42;6.20;90.30
54202;DHT22;40108;53.152;5.844;2023-02-01T08:31:11;6.20;90.30
54202;DHT22;40108;53.152;5.844;2023-02-01T08:33:37;6.20;90.20
54202;DHT22;40108;53.152;5.844;2023-02-01T08:36:10;6.20;90.20
54202;DHT22;40108;53.152;5.844;2023-02-01T08:38:50;6.20;90.10
54202;DHT22;40108;53.152;5.844;2023-02-01T08:41:21;6.20;90.00
54202;DHT22;40108;53.152;5.844;2023-02-01T08:43:48;6.20;89.90
54202;DHT22;40108;53.152;5.844;2023-02-01T08:46:14;6.30;89.80
54202;DHT22;40108;53.152;5.844;2023-02-01T08:48:42;6.20;89.70
54202;DHT22;40108;53.152;5.844;2023-02-01T08:51:10;6.20;89.60
54202;DHT22;40108;53.152;5.844;2023-02-01T08:53:37;6.20;89.60
54202;DHT22;40108;53.152;5.844;2023-02-01T08:56:06;6.20;89.60
54202;DHT22;40108;53.152;5.844;2023-02-01T08:58:33;6.20;89.50
54202;DHT22;40108;53.152;5.844;2023-02-01T09:01:09;6.20;89.40
54202;DHT22;40108;53.152;5.844;2023-02-01T09:03:36;6.20;89.40
54202;DHT22;40108;53.152;5.844;2023-02-01T09:06:07;6.30;89.30
54202;DHT22;40108;53.152;5.844;2023-02-01T09:08:34;6.40;89.30
54202;DHT22;40108;53.152;5.844;2023-02-01T09:11:09;6.30;89.30
54202;DHT22;40108;53.152;5.844;2023-02-01T09:13:35;6.30;89.30
54202;DHT22;40108;53.152;5.844;2023-02-01T09:16:04;6.30;89.30
54202;DHT22;40108;53.152;5.844;2023-02-01T09:18:34;6.30;89.40
54202;DHT22;40108;53.152;5.844;2023-02-01T09:21:04;6.30;89.40
54202;DHT22;40108;53.152;5.844;2023-02-01T09:23:33;6.30;89.40
54202;DHT22;40108;53.152;5.844;2023-02-01T09:26:04;6.40;89.50
54202;DHT22;40108;53.152;5.844;2023-02-01T09:28:30;6.30;89.50
54202;DHT22;40108;53.152;5.844;2023-02-01T09:31:07;6.40;89.50
54202;DHT22;40108;53.152;5.844;2023-02-01T09:33:41;6.40;89.40
54202;DHT22;40108;53.152;5.844;2023-02-01T09:36:07;6.40;89.40
54202;DHT22;40108;53.152;5.844;2023-02-01T09:38:33;6.40;89.40
54202;DHT22;40108;53.152;5.844;2023-02-01T09:41:06;6.40;89.20
54202;DHT22;40108;53.152;5.844;2023-02-01T09:46:34;6.40;89.00
54202;DHT22;40108;53.152;5.844;2023-02-01T09:49:10;6.50;89.00
54202;DHT22;40108;53.152;5.844;2023-02-01T09:51:41;6.50;88.90
54202;DHT22;40108;53.152;5.844;2023-02-01T09:54:24;6.50;88.90
54202;DHT22;40108;53.152;5.844;2023-02-01T09:57:11;6.50;88.90
54202;DHT22;40108;53.152;5.844;2023-02-01T09:59:45;6.40;88.90
54202;DHT22;40108;53.152;5.844;2023-02-01T10:02:38;6.50;88.70
54202;DHT22;40108;53.152;5.844;2023-02-01T10:05:16;6.50;88.80
54202;DHT22;40108;53.152;5.844;2023-02-01T10:13:40;6.60;88.80
54202;DHT22;40108;53.152;5.844;2023-02-01T10:22:15;6.70;88.80
54202;DHT22;40108;53.152;5.844;2023-02-01T10:25:05;6.80;88.70
54202;DHT22;40108;53.152;5.844;2023-02-01T10:27:40;6.90;88.50
54202;DHT22;40108;53.152;5.844;2023-02-01T10:30:24;6.90;88.20
54202;DHT22;40108;53.152;5.844;2023-02-01T10:33:16;7.00;87.80
54202;DHT22;40108;53.152;5.844;2023-02-01T10:35:50;7.10;87.50
54202;DHT22;40108;53.152;5.844;2023-02-01T10:38:32;7.10;87.20
54202;DHT22;40108;53.152;5.844;2023-02-01T10:56:21;7.20;87.00
54202;DHT22;40108;53.152;5.844;2023-02-01T11:20:05;7.30;87.20
54202;DHT22;40108;53.152;5.844;2023-02-01T11:29:02;7.30;87.50
54202;DHT22;40108;53.152;5.844;2023-02-01T11:31:29;7.30;87.50
54202;DHT22;40108;53.152;5.844;2023-02-01T11:34:20;7.30;87.60
54202;DHT22;40108;53.152;5.844;2023-02-01T11:36:48;7.20;87.70
54202;DHT22;40108;53.152;5.844;2023-02-01T11:39:18;7.30;87.70
54202;DHT22;40108;53.152;5.844;2023-02-01T11:41:58;7.30;87.50
54202;DHT22;40108;53.152;5.844;2023-02-01T11:44:37;7.40;87.60
54202;DHT22;40108;53.152;5.844;2023-02-01T11:49:50;7.40;87.50
54202;DHT22;40108;53.152;5.844;2023-02-01T12:06:44;7.70;87.10
54202;DHT22;40108;53.152;5.844;2023-02-01T13:15:33;7.60;89.40
54202;DHT22;40108;53.152;5.844;2023-02-01T13:42:18;7.90;88.60
54202;DHT22;40108;53.152;5.844;2023-02-01T13:44:56;7.90;88.80
54202;DHT22;40108;53.152;5.844;2023-02-01T13:47:32;8.00;88.90
54202;DHT22;40108;53.152;5.844;2023-02-01T13:50:12;7.90;88.80
54202;DHT22;40108;53.152;5.844;2023-02-01T13:52:45;7.90;88.70
54202;DHT22;40108;53.152;5.844;2023-02-01T13:57:49;7.80;89.10
54202;DHT22;40108;53.152;5.844;2023-02-01T14:00:30;7.80;89.10
54202;DHT22;40108;53.152;5.844;2023-02-01T14:08:13;7.80;89.30
54202;DHT22;40108;53.152;5.844;2023-02-01T14:10:53;7.80;89.40
54202;DHT22;40108;53.152;5.844;2023-02-01T14:13:38;7.90;89.40
54202;DHT22;40108;53.152;5.844;2023-02-01T14:23:55;7.90;89.40
54202;DHT22;40108;53.152;5.844;2023-02-01T14:26:43;7.90;89.40
54202;DHT22;40108;53.152;5.844;2023-02-01T14:29:49;7.90;89.50
54202;DHT22;40108;53.152;5.844;2023-02-01T14:32:31;7.80;89.60
54202;DHT22;40108;53.152;5.844;2023-02-01T14:35:29;7.90;89.60
54202;DHT22;40108;53.152;5.844;2023-02-01T14:38:04;7.90;89.50
54202;DHT22;40108;53.152;5.844;2023-02-01T14:40:42;7.90;89.50
54202;DHT22;40108;53.152;5.844;2023-02-01T14:43:12;7.90;89.50
54202;DHT22;40108;53.152;5.844;2023-02-01T14:50:57;7.90;89.20
54202;DHT22;40108;53.152;5.844;2023-02-01T14:53:55;7.80;89.00
54202;DHT22;40108;53.152;5.844;2023-02-01T14:59:38;7.80;89.00
54202;DHT22;40108;53.152;5.844;2023-02-01T15:02:34;7.80;89.00
54202;DHT22;40108;53.152;5.844;2023-02-01T15:05:27;7.80;88.90
54202;DHT22;40108;53.152;5.844;2023-02-01T15:08:54;7.70;89.00
54202;DHT22;40108;53.152;5.844;2023-02-01T15:14:48;7.70;89.10
54202;DHT22;40108;53.152;5.844;2023-02-01T15:17:29;7.60;89.10
54202;DHT22;40108;53.152;5.844;2023-02-01T15:20:16;7.60;89.10
54202;DHT22;40108;53.152;5.844;2023-02-01T15:22:51;7.60;89.20
54202;DHT22;40108;53.152;5.844;2023-02-01T15:25:24;7.50;89.20
54202;DHT22;40108;53.152;5.844;2023-02-01T15:27:50;7.50;89.30
54202;DHT22;40108;53.152;5.844;2023-02-01T15:30:28;7.40;89.40
54202;DHT22;40108;53.152;5.844;2023-02-01T15:33:28;7.50;89.60
54202;DHT22;40108;53.152;5.844;2023-02-01T15:36:09;7.50;89.70
54202;DHT22;40108;53.152;5.844;2023-02-01T15:38:44;7.50;89.80
54202;DHT22;40108;53.152;5.844;2023-02-01T15:41:21;7.40;89.90
54202;DHT22;40108;53.152;5.844;2023-02-01T15:46:41;7.30;90.00
54202;DHT22;40108;53.152;5.844;2023-02-01T15:49:38;7.20;90.00
54202;DHT22;40108;53.152;5.844;2023-02-01T15:54:49;7.20;90.20
54202;DHT22;40108;53.152;5.844;2023-02-01T15:57:26;7.20;90.20
54202;DHT22;40108;53.152;5.844;2023-02-01T15:59:57;7.10;90.20
54202;DHT22;40108;53.152;5.844;2023-02-01T16:04:55;7.10;90.40
54202;DHT22;40108;53.152;5.844;2023-02-01T16:07:30;7.10;90.50
54202;DHT22;40108;53.152;5.844;2023-02-01T16:10:01;7.10;90.60
54202;DHT22;40108;53.152;5.844;2023-02-01T16:15:08;7.10;90.70
54202;DHT22;40108;53.152;5.844;2023-02-01T16:17:39;7.10;90.60
54202;DHT22;40108;53.152;5.844;2023-02-01T16:20:08;7.10;90.60
54202;DHT22;40108;53.152;5.844;2023-02-01T16:22:34;7.10;90.50
54202;DHT22;40108;53.152;5.844;2023-02-01T16:25:03;7.10;90.40
54202;DHT22;40108;53.152;5.844;2023-02-01T16:27:32;7.10;90.50
54202;DHT22;40108;53.152;5.844;2023-02-01T16:30:02;7.10;90.60
54202;DHT22;40108;53.152;5.844;2023-02-01T16:32:38;7.10;90.80
54202;DHT22;40108;53.152;5.844;2023-02-01T16:35:35;7.10;90.80
54202;DHT22;40108;53.152;5.844;2023-02-01T16:38:13;7.10;90.70
54202;DHT22;40108;53.152;5.844;2023-02-01T16:40:41;7.00;90.60
54202;DHT22;40108;53.152;5.844;2023-02-01T16:43:20;7.00;90.40
54202;DHT22;40108;53.152;5.844;2023-02-01T16:45:47;7.00;90.30
54202;DHT22;40108;53.152;5.844;2023-02-01T16:48:26;6.90;90.40
54202;DHT22;40108;53.152;5.844;2023-02-01T16:50:57;6.90;90.40
54202;DHT22;40108;53.152;5.844;2023-02-01T16:53:25;6.80;90.40
54202;DHT22;40108;53.152;5.844;2023-02-01T16:55:56;6.80;90.30
54202;DHT22;40108;53.152;5.844;2023-02-01T17:01:06;6.70;90.20
54202;DHT22;40108;53.152;5.844;2023-02-01T17:03:35;6.70;90.20
54202;DHT22;40108;53.152;5.844;2023-02-01T17:06:01;6.70;90.10
54202;DHT22;40108;53.152;5.844;2023-02-01T17:08:34;6.70;90.00
54202;DHT22;40108;53.152;5.844;2023-02-01T17:11:00;6.60;89.70
54202;DHT22;40108;53.152;5.844;2023-02-01T17:13:26;6.60;89.40
54202;DHT22;40108;53.152;5.844;2023-02-01T17:15:56;6.60;89.10
54202;DHT22;40108;53.152;5.844;2023-02-01T17:18:23;6.60;88.90
54202;DHT22;40108;53.152;5.844;2023-02-01T17:20:50;6.50;88.60
54202;DHT22;40108;53.152;5.844;2023-02-01T17:23:18;6.50;88.40
54202;DHT22;40108;53.152;5.844;2023-02-01T17:25:44;6.40;88.30
54202;DHT22;40108;53.152;5.844;2023-02-01T17:28:12;6.50;87.80
54202;DHT22;40108;53.152;5.844;2023-02-01T17:30:39;6.50;87.70
54202;DHT22;40108;53.152;5.844;2023-02-01T17:33:39;6.40;87.70
54202;DHT22;40108;53.152;5.844;2023-02-01T17:36:05;6.50;87.20
54202;DHT22;40108;53.152;5.844;2023-02-01T17:38:50;6.50;87.10
54202;DHT22;40108;53.152;5.844;2023-02-01T17:41:15;6.50;87.10
54202;DHT22;40108;53.152;5.844;2023-02-01T17:43:54;6.50;87.20
54202;DHT22;40108;53.152;5.844;2023-02-01T17:46:25;6.50;87.30
54202;DHT22;40108;53.152;5.844;2023-02-01T17:48:52;6.50;87.50
54202;DHT22;40108;53.152;5.844;2023-02-01T17:51:20;6.50;87.70
54202;DHT22;40108;53.152;5.844;2023-02-01T17:53:46;6.50;87.80
54202;DHT22;40108;53.152;5.844;2023-02-01T17:56:19;6.40;88.00
54202;DHT22;40108;53.152;5.844;2023-02-01T17:58:52;6.30;88.20
54202;DHT22;40108;53.152;5.844;2023-02-01T18:01:22;6.30;88.50
54202;DHT22;40108;53.152;5.844;2023-02-01T18:03:48;6.30;88.70
54202;DHT22;40108;53.152;5.844;2023-02-01T18:06:18;6.30;88.80
54202;DHT22;40108;53.152;5.844;2023-02-01T18:08:46;6.30;89.00
54202;DHT22;40108;53.152;5.844;2023-02-01T18:11:17;6.40;89.20
54202;DHT22;40108;53.152;5.844;2023-02-01T18:13:43;6.30;89.30
54202;DHT22;40108;53.152;5.844;2023-02-01T18:18:46;6.40;89.20
54202;DHT22;40108;53.152;5.844;2023-02-01T18:21:14;6.30;89.10
54202;DHT22;40108;53.152;5.844;2023-02-01T18:23:43;6.30;89.00
54202;DHT22;40108;53.152;5.844;2023-02-01T18:26:15;6.30;88.90
54202;DHT22;40108;53.152;5.844;2023-02-01T18:28:41;6.30;88.80
54202;DHT22;40108;53.152;5.844;2023-02-01T18:33:51;6.20;88.80
54202;DHT22;40108;53.152;5.844;2023-02-01T18:36:17;6.20;88.60
54202;DHT22;40108;53.152;5.844;2023-02-01T18:38:44;6.20;88.50
54202;DHT22;40108;53.152;5.844;2023-02-01T18:41:15;6.20;88.40
54202;DHT22;40108;53.152;5.844;2023-02-01T18:43:41;6.20;88.30
54202;DHT22;40108;53.152;5.844;2023-02-01T18:46:11;6.20;88.10
54202;DHT22;40108;53.152;5.844;2023-02-01T18:48:37;6.10;87.80
54202;DHT22;40108;53.152;5.844;2023-02-01T18:51:04;6.10;87.60
54202;DHT22;40108;53.152;5.844;2023-02-01T18:53:30;6.10;87.50
54202;DHT22;40108;53.152;5.844;2023-02-01T18:55:59;6.10;87.30
54202;DHT22;40108;53.152;5.844;2023-02-01T18:58:25;6.00;87.10
54202;DHT22;40108;53.152;5.844;2023-02-01T19:00:53;6.00;86.70
54202;DHT22;40108;53.152;5.844;2023-02-01T19:03:19;6.00;86.50
54202;DHT22;40108;53.152;5.844;2023-02-01T19:05:51;6.00;86.40
54202;DHT22;40108;53.152;5.844;2023-02-01T19:08:19;6.00;86.20
54202;DHT22;40108;53.152;5.844;2023-02-01T19:10:45;6.00;85.90
54202;DHT22;40108;53.152;5.844;2023-02-01T19:13:11;6.00;85.60
54202;DHT22;40108;53.152;5.844;2023-02-01T19:15:45;5.90;85.70
54202;DHT22;40108;53.152;5.844;2023-02-01T19:18:11;5.90;85.70
54202;DHT22;40108;53.152;5.844;2023-02-01T19:20:39;5.90;85.50
54202;DHT22;40108;53.152;5.844;2023-02-01T19:23:07;5.90;85.60
54202;DHT22;40108;53.152;5.844;2023-02-01T19:25:32;5.90;85.50
54202;DHT22;40108;53.152;5.844;2023-02-01T19:28:00;5.90;85.50
54202;DHT22;40108;53.152;5.844;2023-02-01T19:30:34;5.90;85.60
54202;DHT22;40108;53.152;5.844;2023-02-01T19:33:00;5.90;85.60
54202;DHT22;40108;53.152;5.844;2023-02-01T19:35:29;5.80;85.80
54202;DHT22;40108;53.152;5.844;2023-02-01T19:37:55;5.90;85.80
54202;DHT22;40108;53.152;5.844;2023-02-01T19:40:22;5.80;85.90
54202;DHT22;40108;53.152;5.844;2023-02-01T19:42:48;5.80;85.90
54202;DHT22;40108;53.152;5.844;2023-02-01T19:45:15;5.80;85.80
54202;DHT22;40108;53.152;5.844;2023-02-01T19:47:43;5.80;85.90
54202;DHT22;40108;53.152;5.844;2023-02-01T19:50:14;5.80;85.80
54202;DHT22;40108;53.152;5.844;2023-02-01T19:52:43;5.80;85.70
54202;DHT22;40108;53.152;5.844;2023-02-01T19:55:11;5.80;85.60
54202;DHT22;40108;53.152;5.844;2023-02-01T19:57:37;5.80;85.50
54202;DHT22;40108;53.152;5.844;2023-02-01T20:00:04;5.80;85.40
54202;DHT22;40108;53.152;5.844;2023-02-01T20:02:31;5.80;85.40
54202;DHT22;40108;53.152;5.844;2023-02-01T20:04:57;5.80;85.30
54202;DHT22;40108;53.152;5.844;2023-02-01T20:07:23;5.80;85.40
54202;DHT22;40108;53.152;5.844;2023-02-01T20:09:50;5.70;85.20
54202;DHT22;40108;53.152;5.844;2023-02-01T20:12:19;5.70;85.40
54202;DHT22;40108;53.152;5.844;2023-02-01T20:14:45;5.70;85.30
54202;DHT22;40108;53.152;5.844;2023-02-01T20:17:14;5.70;85.40
54202;DHT22;40108;53.152;5.844;2023-02-01T20:19:40;5.70;85.60
54202;DHT22;40108;53.152;5.844;2023-02-01T20:22:08;5.70;85.80
54202;DHT22;40108;53.152;5.844;2023-02-01T20:24:34;5.70;86.00
54202;DHT22;40108;53.152;5.844;2023-02-01T20:26:59;5.60;86.30
54202;DHT22;40108;53.152;5.844;2023-02-01T20:29:27;5.60;86.60